Time;durP1;ratioP1;P1;durP2;ratioP2;P2;SDS_P1;SDS_P2;PMS_P1;PMS_P2;Temp;Humidity;BMP_temperature;BMP_pressure;BME280_temperature;BME280_humidity;BME280_pressure;Samples;Min_cycle;Max_cycle;Signal;HPM_P1;HPM_P2
2021/09/24 00:00:27;;;;;;;7.85;2.25;;;;;;;15.08;78.00;101753.97;5017171;28;20380;-82
2021/09/24 00:02:52;;;;;;;5.68;1.55;;;;;;;15.17;77.35;101757.94;4990464;28;20059;-82
2021/09/24 00:05:18;;;;;;;4.30;1.70;;;;;;;15.46;76.74;101761.91;5023912;28;20042;-82
2021/09/24 00:07:43;;;;;;;5.65;1.42;;;;;;;15.19;77.39;101760.53;5019062;28;20341;-81
2021/09/24 00:10:10;;;;;;;3.30;1.52;;;;;;;14.91;78.88;101761.78;5005580;28;20038;-82
2021/09/24 00:12:35;;;;;;;4.80;1.50;;;;;;;14.80;78.59;101754.31;5041721;28;20109;-81
2021/09/24 00:15:01;;;;;;;4.22;1.60;;;;;;;14.51;79.29;101755.56;5008796;28;20026;-81
2021/09/24 00:17:26;;;;;;;5.90;1.67;;;;;;;14.53;80.25;101751.06;5042083;28;20329;-81
2021/09/24 00:19:52;;;;;;;4.55;1.55;;;;;;;14.59;80.32;101748.22;5042595;28;20035;-81
2021/09/24 00:22:18;;;;;;;5.85;1.60;;;;;;;14.61;81.26;101748.13;5006245;28;20344;-81
2021/09/24 00:24:43;;;;;;;9.00;1.73;;;;;;;14.51;81.10;101759.03;5040101;28;20037;-81
2021/09/24 00:27:09;;;;;;;2.92;1.65;;;;;;;14.64;80.51;101751.50;5013862;28;20037;-81
2021/09/24 00:29:34;;;;;;;5.40;1.55;;;;;;;14.77;79.95;101743.91;4988406;28;20248;-81
2021/09/24 00:31:59;;;;;;;6.50;1.55;;;;;;;14.71;79.84;101745.03;5010194;28;20049;-82
2021/09/24 00:34:25;;;;;;;4.50;1.70;;;;;;;14.56;80.93;101737.78;5003035;28;20357;-82
2021/09/24 00:36:50;;;;;;;3.88;2.00;;;;;;;14.72;80.63;101740.63;5032054;28;20087;-81
2021/09/24 00:39:16;;;;;;;5.32;1.63;;;;;;;14.62;80.32;101740.16;5023941;28;20113;-81
2021/09/24 00:41:41;;;;;;;2.67;1.90;;;;;;;14.56;81.94;101743.88;5000652;28;20067;-81
2021/09/24 00:44:07;;;;;;;7.63;1.92;;;;;;;14.42;82.14;101743.63;5020829;28;20034;-81
2021/09/24 00:46:32;;;;;;;6.78;1.80;;;;;;;14.43;82.60;101739.22;5027029;28;20332;-81
2021/09/24 00:48:58;;;;;;;4.40;1.98;;;;;;;14.55;82.19;101736.03;5004994;28;20042;-81
2021/09/24 00:51:23;;;;;;;9.90;1.73;;;;;;;14.90;80.34;101737.19;5018858;28;20037;-82
2021/09/24 00:53:49;;;;;;;5.47;1.65;;;;;;;14.59;81.29;101733.25;4989424;28;20056;-82
2021/09/24 00:56:14;;;;;;;6.78;1.80;;;;;;;14.82;80.13;101728.75;4996990;28;20032;-81
2021/09/24 00:58:39;;;;;;;5.82;1.80;;;;;;;14.60;81.24;101728.84;5013402;28;20036;-82
2021/09/24 01:01:05;;;;;;;7.07;1.50;;;;;;;14.30;82.65;101731.84;5032799;28;20336;-82
2021/09/24 01:03:30;;;;;;;7.57;2.05;;;;;;;14.31;82.46;101730.03;5009647;28;20564;-82
2021/09/24 01:05:56;;;;;;;10.65;2.58;;;;;;;14.30;83.42;101726.56;5023569;28;20044;-82
2021/09/24 01:08:21;;;;;;;9.18;2.40;;;;;;;14.47;82.73;101731.09;5004036;28;20042;-82
2021/09/24 01:10:48;;;;;;;11.25;2.03;;;;;;;14.51;82.59;101731.84;5030749;28;20047;-81
2021/09/24 01:13:13;;;;;;;6.85;1.80;;;;;;;14.40;82.82;101729.66;5006856;28;20309;-82
2021/09/24 01:15:39;;;;;;;8.07;2.13;;;;;;;14.41;82.96;101720.84;5011911;28;20096;-81
2021/09/24 01:18:04;;;;;;;6.10;2.50;;;;;;;14.48;82.72;101719.66;5006241;28;20237;-81
2021/09/24 01:20:30;;;;;;;10.20;2.83;;;;;;;14.46;82.57;101713.59;5006769;28;20337;-81
2021/09/24 01:22:55;;;;;;;8.82;2.00;;;;;;;14.52;82.57;101715.13;4997118;28;20456;-82
2021/09/24 01:25:21;;;;;;;8.73;2.00;;;;;;;14.51;82.61;101711.59;5007421;28;20038;-82
2021/09/24 01:27:47;;;;;;;5.65;1.75;;;;;;;14.60;81.62;101705.09;5021219;28;20049;-82
2021/09/24 01:30:15;;;;;;;5.07;2.05;;;;;;;14.46;81.87;101700.44;5004416;28;20053;-81
2021/09/24 01:32:40;;;;;;;3.88;1.63;;;;;;;14.51;82.30;101701.06;5019887;28;20033;-82
2021/09/24 01:35:06;;;;;;;7.97;2.20;;;;;;;14.38;82.68;101705.16;5003279;28;20399;-82
2021/09/24 01:37:32;;;;;;;4.22;1.92;;;;;;;14.32;83.54;101702.78;5003059;28;20038;-82
2021/09/24 01:39:57;;;;;;;3.25;2.00;;;;;;;14.20;83.58;101702.38;5015285;28;20034;-82
2021/09/24 01:42:23;;;;;;;6.25;2.35;;;;;;;14.18;83.86;101698.09;5001954;28;20049;-81
2021/09/24 01:44:49;;;;;;;5.88;2.72;;;;;;;14.34;83.13;101700.94;5007131;28;20079;-81
2021/09/24 01:47:14;;;;;;;5.57;1.90;;;;;;;14.19;82.91;101691.91;5018179;28;20286;-81
2021/09/24 01:49:40;;;;;;;6.30;2.15;;;;;;;14.04;84.23;101689.91;5019262;28;20038;-81
2021/09/24 01:52:05;;;;;;;4.30;2.10;;;;;;;14.09;84.12;101691.44;5012009;28;20048;-81
2021/09/24 01:54:31;;;;;;;4.90;2.10;;;;;;;13.95;84.63;101689.38;5004679;28;20797;-81
2021/09/24 01:56:56;;;;;;;7.03;2.13;;;;;;;13.80;84.99;101682.94;5004213;28;20018;-82
2021/09/24 01:59:22;;;;;;;9.80;2.42;;;;;;;13.86;85.02;101681.88;4987831;28;20029;-81
2021/09/24 02:01:47;;;;;;;11.35;2.15;;;;;;;13.84;84.97;101673.16;4998650;28;20070;-81
2021/09/24 02:04:13;;;;;;;5.28;2.38;;;;;;;13.80;85.55;101664.53;4987888;28;20045;-80
2021/09/24 02:06:38;;;;;;;4.03;2.03;;;;;;;13.95;84.13;101662.19;5004551;28;20038;-80
2021/09/24 02:09:04;;;;;;;5.05;2.22;;;;;;;13.86;84.84;101671.34;4985722;28;20081;-79
2021/09/24 02:11:29;;;;;;;7.20;2.95;;;;;;;13.80;85.23;101661.88;5002967;28;20099;-80
2021/09/24 02:13:55;;;;;;;8.65;2.47;;;;;;;14.05;83.79;101662.66;4997698;28;20033;-79
2021/09/24 02:16:20;;;;;;;4.00;2.15;;;;;;;14.08;82.42;101658.13;5003145;28;20222;-79
2021/09/24 02:18:46;;;;;;;5.72;2.10;;;;;;;13.90;83.52;101658.88;5004458;28;20029;-81
2021/09/24 02:21:11;;;;;;;6.47;2.08;;;;;;;13.96;84.24;101656.84;5019106;28;20091;-81
2021/09/24 02:23:37;;;;;;;8.48;2.30;;;;;;;14.09;84.03;101659.81;4992802;28;20033;-80
2021/09/24 02:26:03;;;;;;;7.00;2.00;;;;;;;13.81;84.48;101654.88;5018937;28;20034;-81
2021/09/24 02:28:28;;;;;;;7.65;2.65;;;;;;;13.77;85.11;101661.16;5008315;28;20410;-80
2021/09/24 02:30:54;;;;;;;9.38;2.97;;;;;;;13.64;85.45;101655.53;4988614;28;20030;-80
2021/09/24 02:33:19;;;;;;;5.10;2.38;;;;;;;13.73;85.89;101656.94;5041329;28;20033;-80
2021/09/24 02:35:45;;;;;;;3.28;2.10;;;;;;;13.73;85.59;101655.16;5028769;28;20033;-80
2021/09/24 02:38:10;;;;;;;4.72;2.58;;;;;;;13.69;85.92;101655.38;5037030;28;20021;-80
2021/09/24 02:40:36;;;;;;;9.68;2.45;;;;;;;13.63;85.82;101659.09;5044094;28;20375;-80
2021/09/24 02:43:01;;;;;;;7.63;2.65;;;;;;;13.59;86.00;101652.25;4992735;28;20120;-80
2021/09/24 02:45:27;;;;;;;7.00;2.55;;;;;;;13.62;86.03;101647.72;4991686;28;20033;-81
2021/09/24 02:47:52;;;;;;;6.60;2.30;;;;;;;13.82;84.92;101644.28;5009092;28;20053;-80
2021/09/24 02:50:17;;;;;;;5.07;2.33;;;;;;;13.86;84.20;101650.28;5021797;28;20364;-82
2021/09/24 02:52:43;;;;;;;6.70;2.45;;;;;;;13.72;85.46;101650.84;5004666;28;20042;-83
2021/09/24 02:55:08;;;;;;;8.07;2.33;;;;;;;13.65;86.13;101653.78;5006740;28;20237;-83
2021/09/24 02:57:34;;;;;;;3.70;2.33;;;;;;;13.56;86.22;101645.31;4990090;28;20109;-83
2021/09/24 03:00:00;;;;;;;6.53;3.00;;;;;;;13.57;86.92;101649.69;4993899;28;20329;-83
2021/09/24 03:02:25;;;;;;;7.82;2.80;;;;;;;13.72;86.36;101647.34;5026144;28;20064;-83
2021/09/24 03:04:50;;;;;;;10.02;2.53;;;;;;;13.77;84.73;101651.50;4987692;28;20038;-83
2021/09/24 03:07:16;;;;;;;9.30;2.72;;;;;;;13.79;85.17;101651.44;5018780;28;20100;-82
2021/09/24 03:09:41;;;;;;;4.65;2.60;;;;;;;13.90;85.44;101653.59;4990545;28;20037;-83
2021/09/24 03:12:07;;;;;;;8.90;2.58;;;;;;;13.92;84.89;101644.75;5024842;28;20037;-83
2021/09/24 03:14:32;;;;;;;11.27;3.22;;;;;;;13.90;84.53;101645.72;5039165;28;20038;-83
2021/09/24 03:16:58;;;;;;;6.97;3.00;;;;;;;13.77;86.07;101656.78;5009118;28;20281;-82
2021/09/24 03:19:24;;;;;;;8.82;3.22;;;;;;;13.76;86.03;101648.94;5025872;28;20029;-82
2021/09/24 03:21:50;;;;;;;4.15;2.45;;;;;;;13.75;85.32;101652.47;5016634;28;20056;-82
2021/09/24 03:24:15;;;;;;;6.15;2.90;;;;;;;13.97;84.71;101647.16;5009801;28;20038;-82
2021/09/24 03:26:41;;;;;;;4.40;2.65;;;;;;;13.95;84.83;101643.75;5006432;28;20100;-82
2021/09/24 03:29:07;;;;;;;7.13;2.53;;;;;;;13.82;85.48;101635.50;5009200;28;20068;-83
2021/09/24 03:31:33;;;;;;;11.80;3.40;;;;;;;13.80;86.10;101637.34;5006665;28;20036;-84
2021/09/24 03:33:58;;;;;;;7.97;3.25;;;;;;;13.93;85.98;101632.41;5023528;28;20034;-83
2021/09/24 03:36:24;;;;;;;6.35;3.35;;;;;;;14.10;86.00;101631.69;5032399;28;20080;-83
2021/09/24 03:38:49;;;;;;;9.43;3.33;;;;;;;13.99;86.04;101638.31;5037645;28;20083;-83
2021/09/24 03:41:14;;;;;;;12.25;4.60;;;;;;;14.06;86.76;101636.28;4998943;28;20054;-82
2021/09/24 03:43:40;;;;;;;14.75;3.75;;;;;;;14.04;86.12;101626.69;5021530;28;20037;-81
2021/09/24 03:46:05;;;;;;;11.40;4.28;;;;;;;14.08;86.28;101625.66;5002626;28;20065;-80
2021/09/24 03:48:31;;;;;;;9.88;4.20;;;;;;;14.06;86.55;101623.09;5000325;28;20037;-82
2021/09/24 03:50:56;;;;;;;8.65;3.60;;;;;;;14.01;86.66;101627.69;5019911;28;20076;-83
2021/09/24 03:53:22;;;;;;;6.85;3.22;;;;;;;14.09;86.24;101624.72;5016961;28;20038;-82
2021/09/24 03:55:52;;;;;;;10.00;4.45;;;;;;;14.08;87.05;101621.25;5010118;28;20095;-82
2021/09/24 03:58:17;;;;;;;13.20;4.97;;;;;;;14.29;86.82;101627.34;5026167;28;20040;-82
2021/09/24 04:00:43;;;;;;;15.15;5.85;;;;;;;14.26;87.17;101626.63;5038032;28;20029;-83
2021/09/24 04:03:08;;;;;;;10.15;4.90;;;;;;;14.21;86.82;101634.75;5039044;28;20093;-83
2021/09/24 04:05:33;;;;;;;10.50;4.60;;;;;;;14.31;86.47;101632.56;5005821;28;20336;-83
2021/09/24 04:07:59;;;;;;;12.30;3.97;;;;;;;14.26;86.19;101626.63;5037946;28;20018;-82
2021/09/24 04:10:24;;;;;;;9.73;4.65;;;;;;;14.28;86.37;101630.94;4994850;28;20037;-82
2021/09/24 04:12:50;;;;;;;13.23;5.72;;;;;;;14.38;86.36;101636.63;5021162;28;20316;-82
2021/09/24 04:15:15;;;;;;;6.50;3.60;;;;;;;14.31;86.77;101629.94;5033941;28;20052;-83
2021/09/24 04:17:40;;;;;;;10.55;3.65;;;;;;;14.23;87.12;101635.53;5007177;28;20031;-82
2021/09/24 04:20:06;;;;;;;12.02;5.28;;;;;;;14.38;86.33;101631.38;5024469;28;20109;-83
2021/09/24 04:22:32;;;;;;;13.73;4.13;;;;;;;14.36;86.69;101633.22;5005043;28;20050;-82
2021/09/24 04:24:57;;;;;;;11.45;3.90;;;;;;;14.38;86.74;101634.84;5008312;28;20111;-82
2021/09/24 04:27:23;;;;;;;11.77;3.55;;;;;;;14.37;86.64;101638.44;5027654;28;20248;-82
2021/09/24 04:29:48;;;;;;;15.82;5.57;;;;;;;14.46;87.07;101631.91;5021044;28;20049;-82
2021/09/24 04:32:14;;;;;;;9.98;6.13;;;;;;;14.55;86.65;101639.41;5003713;28;20033;-82
2021/09/24 04:34:39;;;;;;;9.45;4.45;;;;;;;14.61;86.39;101638.28;4990853;28;20029;-82
2021/09/24 04:37:05;;;;;;;13.52;6.15;;;;;;;14.64;86.92;101629.38;5008850;28;20048;-84
2021/09/24 04:39:30;;;;;;;15.52;6.35;;;;;;;14.63;86.86;101625.91;5006530;28;20041;-83
2021/09/24 04:41:55;;;;;;;13.15;5.70;;;;;;;14.60;87.13;101623.38;5039298;28;20116;-83
2021/09/24 04:44:21;;;;;;;16.38;6.72;;;;;;;14.84;86.70;101626.69;5035787;28;20022;-83
2021/09/24 04:46:48;;;;;;;23.80;8.80;;;;;;;14.84;88.11;101621.41;5005575;28;20232;-83
2021/09/24 04:49:13;;;;;;;27.10;11.38;;;;;;;14.86;89.01;101631.91;4994538;28;20037;-83
2021/09/24 04:51:39;;;;;;;28.77;10.93;;;;;;;14.95;88.91;101637.63;4989523;28;20107;-83
2021/09/24 04:54:04;;;;;;;37.60;12.48;;;;;;;15.09;88.07;101634.31;5023790;28;20030;-82
2021/09/24 04:56:30;;;;;;;31.13;11.52;;;;;;;15.05;88.39;101635.41;5011497;28;20331;-82
2021/09/24 04:58:55;;;;;;;26.48;10.70;;;;;;;15.31;86.61;101628.88;5020815;28;20044;-82
2021/09/24 05:01:21;;;;;;;17.42;6.72;;;;;;;15.33;85.65;101620.88;5012099;28;20034;-82
2021/09/24 05:03:46;;;;;;;18.98;8.48;;;;;;;15.70;84.47;101619.09;4992713;28;20023;-82
2021/09/24 05:06:11;;;;;;;23.73;9.43;;;;;;;15.70;85.07;101613.81;5043206;28;20159;-82
2021/09/24 05:08:37;;;;;;;26.08;10.88;;;;;;;15.59;86.17;101616.13;5014679;28;20040;-82
2021/09/24 05:11:02;;;;;;;26.00;11.90;;;;;;;15.85;85.45;101617.50;5006490;28;20040;-83
2021/09/24 05:13:28;;;;;;;21.80;12.57;;;;;;;16.24;83.33;101619.03;5001242;28;20045;-82
2021/09/24 05:15:53;;;;;;;24.20;12.10;;;;;;;16.38;82.49;101611.22;5005056;28;20034;-82
2021/09/24 05:18:19;;;;;;;11.27;7.65;;;;;;;16.57;77.84;101611.13;5017531;28;20337;-81
2021/09/24 05:20:44;;;;;;;12.70;6.43;;;;;;;16.93;75.45;101610.06;5012198;28;20241;-81
2021/09/24 05:23:10;;;;;;;9.32;4.25;;;;;;;17.31;71.32;101598.28;5011678;28;20042;-81
2021/09/24 05:25:35;;;;;;;16.23;11.38;;;;;;;17.41;78.84;101602.97;5023764;28;20576;-81
2021/09/24 05:28:00;;;;;;;24.35;14.00;;;;;;;17.22;79.54;101597.00;5022064;28;20044;-82
2021/09/24 05:30:26;;;;;;;21.65;14.10;;;;;;;17.04;81.84;101612.13;5004263;28;20025;-82
2021/09/24 05:32:51;;;;;;;8.02;5.18;;;;;;;17.30;78.18;101605.38;5001729;28;20104;-82
2021/09/24 05:35:17;;;;;;;14.27;8.68;;;;;;;17.06;78.09;101608.47;5031164;28;20225;-82
2021/09/24 05:37:43;;;;;;;15.18;10.30;;;;;;;17.61;77.65;101608.91;5051627;28;20218;-81
2021/09/24 05:40:09;;;;;;;22.85;14.63;;;;;;;17.01;82.74;101622.91;5023899;28;20048;-82
2021/09/24 05:42:34;;;;;;;16.63;7.28;;;;;;;17.10;78.74;101618.84;5003905;28;20048;-82
2021/09/24 05:44:59;;;;;;;13.98;8.00;;;;;;;17.56;75.32;101617.09;5015129;28;20033;-81
2021/09/24 05:47:25;;;;;;;28.98;12.90;;;;;;;17.43;79.02;101611.66;5032928;28;20025;-81
2021/09/24 05:49:50;;;;;;;23.67;13.50;;;;;;;17.33;76.45;101606.97;5032745;28;20037;-82
2021/09/24 05:52:16;;;;;;;13.40;6.20;;;;;;;17.53;77.40;101609.34;5013367;28;20026;-82
2021/09/24 05:54:41;;;;;;;6.80;4.40;;;;;;;17.76;74.42;101615.94;5014830;28;20045;-81
2021/09/24 05:57:06;;;;;;;15.13;7.13;;;;;;;18.26;69.57;101615.69;5013028;28;20046;-81
2021/09/24 05:59:32;;;;;;;11.40;6.93;;;;;;;18.36;70.40;101616.84;5048099;28;20036;-81
2021/09/24 06:01:57;;;;;;;9.40;5.80;;;;;;;18.60;68.04;101607.38;5016740;28;20356;-80
2021/09/24 06:04:23;;;;;;;9.60;4.15;;;;;;;18.74;71.53;101616.28;5015148;28;20029;-81
2021/09/24 06:06:48;;;;;;;9.32;3.83;;;;;;;18.71;68.83;101616.47;5016812;28;20059;-80
2021/09/24 06:09:14;;;;;;;10.40;6.53;;;;;;;18.89;67.39;101614.50;5032681;28;20045;-80
2021/09/24 06:11:39;;;;;;;5.57;2.80;;;;;;;19.29;64.91;101604.78;5050474;28;20044;-81
2021/09/24 06:14:05;;;;;;;10.23;3.00;;;;;;;19.60;64.23;101599.28;5013289;28;20148;-81
2021/09/24 06:16:30;;;;;;;11.05;5.05;;;;;;;18.82;72.36;101607.88;5016484;28;20041;-81
2021/09/24 06:18:55;;;;;;;11.07;3.15;;;;;;;19.31;66.80;101605.53;5032124;28;20037;-81
2021/09/24 06:21:21;;;;;;;13.35;5.32;;;;;;;18.98;67.52;101620.06;5015840;28;20033;-80
2021/09/24 06:23:47;;;;;;;21.73;12.23;;;;;;;18.38;71.28;101625.56;5030705;28;20052;-81
2021/09/24 06:26:12;;;;;;;6.80;3.00;;;;;;;19.18;69.20;101624.06;5053573;28;20302;-81
2021/09/24 06:28:38;;;;;;;16.98;7.38;;;;;;;19.16;66.91;101630.44;5021276;28;20056;-81
2021/09/24 06:31:04;;;;;;;14.48;6.80;;;;;;;19.35;67.05;101630.94;5030358;28;20029;-80
2021/09/24 06:33:29;;;;;;;5.63;3.42;;;;;;;19.56;65.39;101628.69;5014274;28;20038;-81
2021/09/24 06:35:54;;;;;;;10.25;3.38;;;;;;;19.46;65.72;101629.41;5021716;28;20037;-81
2021/09/24 06:38:20;;;;;;;9.13;3.33;;;;;;;19.70;64.74;101630.44;5005306;28;20300;-81
2021/09/24 06:40:45;;;;;;;18.13;4.93;;;;;;;19.46;66.11;101624.09;5020684;28;20029;-77
2021/09/24 06:43:11;;;;;;;13.93;4.13;;;;;;;19.51;66.18;101638.75;5052984;28;20059;-77
2021/09/24 06:45:36;;;;;;;10.38;3.10;;;;;;;19.52;66.46;101632.50;5030791;28;20029;-76
2021/09/24 06:48:03;;;;;;;10.95;3.00;;;;;;;19.66;66.33;101628.06;5033025;28;20045;-76
2021/09/24 06:50:29;;;;;;;19.83;4.03;;;;;;;19.68;66.25;101629.69;5024738;28;20034;-76
2021/09/24 06:52:54;;;;;;;9.57;3.45;;;;;;;19.78;65.96;101629.97;5008501;28;20040;-77
2021/09/24 06:55:22;;;;;;;15.43;2.97;;;;;;;19.83;65.66;101624.31;5053185;28;20029;-77
2021/09/24 06:57:50;;;;;;;13.57;3.40;;;;;;;19.87;65.62;101620.53;5018503;28;20279;-80
2021/09/24 07:00:16;;;;;;;14.48;3.67;;;;;;;20.00;65.67;101634.66;5017010;28;20020;-81
2021/09/24 07:02:41;;;;;;;10.00;3.17;;;;;;;20.42;63.92;101624.69;5020843;28;20055;-82
2021/09/24 07:05:07;;;;;;;11.40;3.83;;;;;;;20.61;63.61;101626.06;5047651;28;20037;-79
2021/09/24 07:07:32;;;;;;;10.38;3.03;;;;;;;20.62;63.39;101635.78;5008000;28;20323;-79
2021/09/24 07:09:58;;;;;;;10.55;3.65;;;;;;;20.64;63.35;101628.53;4995400;28;20037;-78
2021/09/24 07:12:24;;;;;;;8.23;3.47;;;;;;;20.80;62.91;101636.28;4990217;28;20029;-78
2021/09/24 07:14:49;;;;;;;29.58;5.60;;;;;;;20.77;62.84;101641.81;4991792;28;20029;-81
2021/09/24 07:17:15;;;;;;;10.90;3.60;;;;;;;20.70;63.12;101639.59;4992910;28;20021;-80
2021/09/24 07:19:41;;;;;;;21.77;2.95;;;;;;;20.55;63.78;101637.13;5004068;28;20033;-80
2021/09/24 07:22:07;;;;;;;13.02;3.25;;;;;;;20.55;63.66;101637.13;5005785;28;20330;-79
2021/09/24 07:24:33;;;;;;;10.65;2.55;;;;;;;20.61;63.84;101634.94;5021045;28;20104;-80
2021/09/24 07:26:59;;;;;;;12.98;3.25;;;;;;;20.74;63.48;101642.91;5027296;28;20333;-79
2021/09/24 07:29:24;;;;;;;8.70;2.70;;;;;;;20.94;62.75;101635.28;4997209;28;20036;-79
2021/09/24 07:31:50;;;;;;;9.35;3.22;;;;;;;21.08;62.30;101643.13;5014046;28;20042;-81
2021/09/24 07:34:15;;;;;;;19.38;3.15;;;;;;;21.23;61.73;101641.19;5023994;28;20095;-79
2021/09/24 07:36:40;;;;;;;18.20;3.65;;;;;;;21.43;61.22;101643.22;5035968;28;20038;-80
2021/09/24 07:39:06;;;;;;;14.55;3.50;;;;;;;21.43;60.66;101653.88;5032714;28;20036;-80
2021/09/24 07:41:32;;;;;;;10.18;3.45;;;;;;;21.56;60.43;101651.19;5009850;28;20108;-79
2021/09/24 07:43:59;;;;;;;19.40;3.63;;;;;;;21.69;60.41;101647.59;5017731;28;20034;-79
2021/09/24 07:46:25;;;;;;;11.70;3.60;;;;;;;21.76;60.42;101648.84;5014035;28;20224;-79
2021/09/24 07:48:50;;;;;;;13.38;3.72;;;;;;;21.77;60.26;101647.88;5045362;28;20029;-80
2021/09/24 07:51:16;;;;;;;21.13;3.58;;;;;;;21.85;59.50;101649.00;5010315;28;20045;-81
2021/09/24 07:53:41;;;;;;;20.50;3.90;;;;;;;22.02;59.32;101655.69;5012464;28;20075;-81
2021/09/24 07:56:07;;;;;;;29.90;4.20;;;;;;;22.28;58.67;101644.03;5011471;28;20025;-79
2021/09/24 07:58:33;;;;;;;26.75;4.80;;;;;;;22.40;58.34;101653.75;5010160;28;20037;-81
2021/09/24 08:00:58;;;;;;;25.98;3.50;;;;;;;22.55;57.62;101644.53;5028507;28;20083;-79
2021/09/24 08:03:23;;;;;;;18.25;4.55;;;;;;;22.56;57.93;101635.56;5025445;28;20292;-80
2021/09/24 08:05:50;;;;;;;22.40;3.55;;;;;;;22.81;56.97;101637.13;5035276;28;20044;-79
2021/09/24 08:08:16;;;;;;;40.33;4.93;;;;;;;23.03;56.65;101640.75;5044869;28;20033;-77
2021/09/24 08:10:41;;;;;;;26.65;4.32;;;;;;;22.94;56.99;101646.81;5017987;28;20099;-78
2021/09/24 08:13:07;;;;;;;32.05;4.63;;;;;;;23.15;56.62;101642.44;5048024;28;20220;-80
2021/09/24 08:15:33;;;;;;;34.55;4.75;;;;;;;23.32;55.91;101650.91;5019331;28;20052;-78
2021/09/24 08:17:58;;;;;;;35.35;5.20;;;;;;;23.45;55.43;101656.94;5015537;28;20085;-77
2021/09/24 08:20:23;;;;;;;34.42;4.63;;;;;;;23.85;54.51;101648.31;5016762;28;20048;-77
2021/09/24 08:22:49;;;;;;;33.17;5.25;;;;;;;24.00;54.25;101634.63;5052712;28;20255;-77
2021/09/24 08:25:16;;;;;;;37.20;4.47;;;;;;;24.40;52.90;101648.06;5037731;28;20310;-76
2021/09/24 08:27:42;;;;;;;17.95;5.03;;;;;;;24.91;51.26;101643.66;5031126;28;20036;-78
2021/09/24 08:30:12;;;;;;;28.35;4.85;;;;;;;25.13;50.79;101639.91;5033568;28;20048;-80
2021/09/24 08:32:38;;;;;;;46.75;4.68;;;;;;;25.05;51.05;101648.63;5017081;28;20041;-79
2021/09/24 08:35:09;;;;;;;20.73;3.78;;;;;;;25.60;49.75;101650.00;5017425;28;20109;-78
2021/09/24 08:37:35;;;;;;;31.20;4.57;;;;;;;25.88;49.23;101644.75;5016278;28;20039;-78
2021/09/24 08:40:01;;;;;;;36.22;4.80;;;;;;;26.33;47.90;101644.13;5006897;28;20025;-78
2021/09/24 08:42:26;;;;;;;28.33;5.10;;;;;;;26.70;46.81;101643.28;5030751;28;20137;-78
2021/09/24 08:44:52;;;;;;;35.03;4.80;;;;;;;26.54;47.67;101643.91;5036440;28;20033;-77
2021/09/24 08:47:18;;;;;;;23.02;4.95;;;;;;;27.12;46.14;101642.78;5019585;28;20037;-78
2021/09/24 08:49:44;;;;;;;30.10;4.68;;;;;;;27.43;45.28;101637.06;5010641;28;20268;-80
2021/09/24 08:52:09;;;;;;;35.72;4.65;;;;;;;27.61;45.02;101645.97;5006730;28;20038;-79
2021/09/24 08:54:35;;;;;;;40.60;5.13;;;;;;;27.32;45.46;101648.91;5001015;28;20157;-79
2021/09/24 08:57:01;;;;;;;25.02;4.35;;;;;;;26.57;47.63;101641.75;5006167;28;20051;-79
2021/09/24 08:59:26;;;;;;;24.77;4.50;;;;;;;27.76;44.88;101641.75;5015235;28;20095;-78
2021/09/24 09:02:05;;;;;;;29.33;4.57;;;;;;;26.15;48.50;101644.88;5013043;28;20049;-78
2021/09/24 09:04:41;;;;;;;30.27;3.92;;;;;;;25.47;50.41;101636.88;5004457;28;20037;-81
2021/09/24 09:07:15;;;;;;;28.35;5.07;;;;;;;24.80;52.69;101635.75;4986225;28;20048;-79
2021/09/24 09:09:43;;;;;;;21.60;4.22;;;;;;;24.50;53.45;101642.75;5014348;28;20041;-80
2021/09/24 09:12:24;;;;;;;29.60;4.15;;;;;;;25.07;52.23;101643.16;5000088;28;20041;-78
2021/09/24 09:15:06;;;;;;;35.17;4.15;;;;;;;24.60;53.39;101627.63;4992302;28;20029;-80
2021/09/24 09:17:34;;;;;;;19.02;3.60;;;;;;;24.77;52.61;101627.97;5014009;28;20029;-79
2021/09/24 09:20:07;;;;;;;21.40;3.83;;;;;;;24.78;52.80;101641.22;4997012;28;20044;-79
2021/09/24 09:22:33;;;;;;;22.15;4.05;;;;;;;24.74;53.12;101646.97;5023508;28;20029;-78
2021/09/24 09:24:58;;;;;;;22.27;3.47;;;;;;;24.71;52.95;101645.44;4996851;28;20044;-80
2021/09/24 09:27:23;;;;;;;29.73;3.92;;;;;;;25.25;51.42;101638.84;5013786;28;20037;-80
2021/09/24 09:30:15;;;;;;;28.27;3.90;;;;;;;25.61;50.06;101647.19;5032535;28;20096;-80
2021/09/24 09:33:00;;;;;;;42.10;4.63;;;;;;;27.52;45.72;101637.00;5022849;28;20061;-78
2021/09/24 09:35:26;;;;;;;23.70;3.72;;;;;;;26.29;48.80;101634.69;5020297;28;20038;-77
2021/09/24 09:37:51;;;;;;;16.90;3.85;;;;;;;25.62;50.26;101642.66;4997412;28;20033;-78
2021/09/24 09:40:21;;;;;;;24.77;3.60;;;;;;;26.23;49.08;101628.91;5011704;28;20037;-78
2021/09/24 09:42:47;;;;;;;16.45;3.47;;;;;;;26.46;48.09;101636.59;5013871;28;20057;-77
2021/09/24 09:45:14;;;;;;;22.45;3.55;;;;;;;27.39;45.55;101637.38;4998318;28;20033;-77
2021/09/24 09:47:41;;;;;;;23.93;3.07;;;;;;;26.85;47.18;101627.53;4992271;28;20034;-77
2021/09/24 09:50:12;;;;;;;17.83;3.58;;;;;;;26.90;47.17;101630.59;4979978;28;20030;-80
2021/09/24 09:52:55;;;;;;;27.10;3.45;;;;;;;27.95;44.30;101627.28;4986894;28;20030;-78
2021/09/24 09:55:21;;;;;;;24.88;3.60;;;;;;;28.19;43.95;101631.13;4994461;28;20040;-77
2021/09/24 09:57:54;;;;;;;15.88;2.95;;;;;;;26.43;47.78;101612.69;4995604;28;20175;-77
2021/09/24 10:00:20;;;;;;;18.05;4.15;;;;;;;25.56;50.26;101613.69;4980752;28;20030;-78
2021/09/24 10:02:47;;;;;;;15.57;3.78;;;;;;;26.67;47.92;101614.03;5013569;28;20045;-78
2021/09/24 10:05:31;;;;;;;16.27;3.20;;;;;;;28.46;43.11;101605.84;4996571;28;20022;-80
2021/09/24 10:07:56;;;;;;;18.83;3.47;;;;;;;29.34;41.24;101611.88;4996299;28;20049;-77
2021/09/24 10:10:22;;;;;;;18.83;3.88;;;;;;;28.71;42.46;101606.81;4994068;28;20057;-77
2021/09/24 10:12:48;;;;;;;7.88;3.40;;;;;;;29.31;41.46;101599.56;4995125;28;20044;-78
2021/09/24 10:15:16;;;;;;;24.83;3.53;;;;;;;30.09;39.56;101594.63;4995401;28;20265;-81
2021/09/24 10:17:42;;;;;;;19.15;3.13;;;;;;;30.33;38.98;101596.44;4995603;28;20061;-78
2021/09/24 10:20:09;;;;;;;33.47;3.78;;;;;;;30.12;39.46;101607.78;5011812;28;20237;-79
2021/09/24 10:22:35;;;;;;;25.08;3.70;;;;;;;30.46;38.86;101601.31;4994854;28;20329;-78
2021/09/24 10:25:00;;;;;;;21.20;3.67;;;;;;;30.35;39.04;101597.97;4993338;28;20034;-78
2021/09/24 10:27:31;;;;;;;25.27;4.45;;;;;;;30.41;38.64;101593.72;4977630;28;20206;-77
2021/09/24 10:30:14;;;;;;;20.27;3.65;;;;;;;30.35;38.79;101589.03;4993744;28;20109;-78
2021/09/24 10:32:53;;;;;;;29.83;4.25;;;;;;;30.28;39.30;101594.25;4981382;28;20042;-77
2021/09/24 10:35:19;;;;;;;17.77;3.33;;;;;;;30.09;39.56;101594.63;4995015;28;20037;-78
2021/09/24 10:37:46;;;;;;;11.85;2.97;;;;;;;30.08;39.49;101591.09;4979921;28;20060;-79
2021/09/24 10:40:21;;;;;;;20.60;3.80;;;;;;;29.94;39.83;101598.03;4980558;28;20045;-80
2021/09/24 10:42:51;;;;;;;18.92;3.03;;;;;;;29.77;40.16;101599.09;5012718;28;20112;-78
2021/09/24 10:45:29;;;;;;;18.92;3.38;;;;;;;28.96;41.81;101606.91;4995685;28;20087;-79
2021/09/24 10:48:15;;;;;;;20.70;3.13;;;;;;;28.82;41.81;101608.38;5014716;28;20222;-79
2021/09/24 10:50:40;;;;;;;13.43;3.08;;;;;;;27.13;45.57;101605.00;4998213;28;20026;-78
2021/09/24 10:53:19;;;;;;;18.60;4.33;;;;;;;26.37;47.80;101608.75;5014395;28;20080;-79
2021/09/24 10:55:53;;;;;;;16.40;3.47;;;;;;;25.85;49.15;101614.53;5016044;28;20319;-79
2021/09/24 10:58:27;;;;;;;20.83;3.28;;;;;;;25.75;49.64;101613.69;5014374;28;20038;-79
2021/09/24 11:00:57;;;;;;;17.40;2.83;;;;;;;25.63;49.86;101615.69;5016831;28;20068;-81
2021/09/24 11:03:24;;;;;;;12.52;2.35;;;;;;;26.00;48.81;101606.91;5005696;28;20030;-79
2021/09/24 11:05:57;;;;;;;20.58;3.35;;;;;;;26.05;48.90;101604.66;5016161;28;20101;-79
2021/09/24 11:11:09;;;;;;;5.30;1.75;;;;;;;25.16;48.26;101598.56;5015834;28;20268;-81
2021/09/24 11:13:43;;;;;;;2.95;1.75;;;;;;;24.91;48.72;101598.13;4997222;28;20042;-81
2021/09/24 11:16:14;;;;;;;4.90;2.03;;;;;;;24.85;48.52;101596.84;5015302;28;20053;-81
2021/09/24 11:18:56;;;;;;;6.40;2.00;;;;;;;24.65;49.13;101595.06;5021994;28;20045;-81